Decoded Metar for LFPB (PARIS LE BOURGET in FRANCE) (IATA:LBG) | Meteo·Mobile Aviation Weather
aviador You're here:

LFPB Decoded Metar

PARIS LE BOURGET in FRANCE
Report Time2019-10-19 21:30:00
UTC Time2019-10-19 21:50:04
Flight Rules vfr VFR
Wind150° at 05 kt
W.Decomp.*RWY 21: 2.6 kt HW 4.3 kt LCW
RWY 09: 2.4 kt HW 4.4 kt RCW
RWY 07: 0.8 kt HW 4.9 kt RCW
Visibility9999 m
Phenomena:Light Rain
Clouds:N/A
Expected CloudBase > 800 ft AGL from Temp-Dew spread
CeilingNone
Temp13°C (ISA -2)
Dew Point11°C (88% RH)
AAT11.5°C
QNH1007 hPa
Density Alt407 ft
Elevation213 ft
Report Wrong Elevation
Raw Report
LFPB 192130Z AUTO 15005KT 9999 -RA NSC 13/11 Q1007 TEMPO 3000
BR=

Extra information for LFPB:More info

Metar Taf Metar & Taf Last 4 Metars F.Rules Stats Wind Profile Meteogram Temp Stats Airport Information Weather charts Add Link Nearby VenuesMetar ALERT Operation Metar Decoded Social comments